createdAt,value
2022-12-14T00:01:41.956Z,-2.50
2022-12-14T00:06:46.856Z,-2.40
2022-12-14T00:11:48.579Z,-2.30
2022-12-14T00:16:50.464Z,-2.40
2022-12-14T00:21:52.241Z,-2.40
2022-12-14T00:26:55.093Z,-2.40
2022-12-14T00:31:56.888Z,-2.30
2022-12-14T00:36:58.882Z,-2.30
2022-12-14T00:42:00.880Z,-2.30
2022-12-14T00:47:02.645Z,-2.40
2022-12-14T00:52:04.430Z,-2.40
2022-12-14T00:57:06.810Z,-2.40
2022-12-14T01:02:08.747Z,-2.50
2022-12-14T01:07:10.600Z,-2.50
2022-12-14T01:12:12.481Z,-2.60
2022-12-14T01:17:14.215Z,-2.60
2022-12-14T01:22:16.062Z,-2.60
2022-12-14T01:27:17.815Z,-2.60
2022-12-14T01:32:19.826Z,-2.60
2022-12-14T01:37:21.565Z,-2.60
2022-12-14T01:42:23.382Z,-2.50
2022-12-14T01:47:36.538Z,-2.50
2022-12-14T01:52:45.115Z,-2.50
2022-12-14T01:57:56.966Z,-2.40
2022-12-14T02:03:25.827Z,-2.30
2022-12-14T02:08:28.681Z,-2.20
2022-12-14T02:13:37.324Z,-2.20
2022-12-14T02:18:39.164Z,-2.30
2022-12-14T02:23:55.930Z,-2.30
2022-12-14T02:29:00.654Z,-2.20
2022-12-14T02:34:15.484Z,-2.20
2022-12-14T02:39:32.704Z,-2.10
2022-12-14T02:44:51.502Z,-2.10
2022-12-14T02:50:24.071Z,-2.00
2022-12-14T02:55:40.805Z,-2.00
2022-12-14T03:00:44.047Z,-1.90
2022-12-14T03:05:58.993Z,-1.90
2022-12-14T03:11:04.729Z,-2.00
2022-12-14T03:16:13.418Z,-2.00
2022-12-14T03:21:19.325Z,-1.90
2022-12-14T03:26:47.409Z,-2.00
2022-12-14T03:32:03.562Z,-2.00
2022-12-14T03:37:13.862Z,-2.00
2022-12-14T03:42:22.664Z,-2.00
2022-12-14T03:47:43.138Z,-2.10
2022-12-14T03:53:08.936Z,-2.10
2022-12-14T03:58:57.303Z,-2.00
2022-12-14T04:04:11.826Z,-2.00
2022-12-14T04:09:51.258Z,-2.00
2022-12-14T04:15:17.243Z,-2.10
2022-12-14T04:20:45.279Z,-2.00
2022-12-14T04:26:06.109Z,-2.10
2022-12-14T04:31:14.015Z,-2.00
2022-12-14T04:36:24.113Z,-2.00
2022-12-14T04:41:31.711Z,-2.00
2022-12-14T04:46:40.550Z,-2.00
2022-12-14T04:52:12.735Z,-2.00
2022-12-14T04:57:31.672Z,-2.00
2022-12-14T05:02:51.970Z,-1.90
2022-12-14T05:08:08.150Z,-1.90
2022-12-14T05:13:31.007Z,-1.90
2022-12-14T05:18:35.389Z,-1.90
2022-12-14T05:23:37.133Z,-1.80
2022-12-14T05:28:38.835Z,-1.90
2022-12-14T05:33:40.584Z,-1.90
2022-12-14T05:38:42.358Z,-1.90
2022-12-14T05:43:44.148Z,-1.80
2022-12-14T05:48:49.181Z,-1.80
2022-12-14T05:53:51.655Z,-1.80
2022-12-14T05:58:53.411Z,-1.80
2022-12-14T06:03:55.236Z,-1.80
2022-12-14T06:08:57.061Z,-1.90
2022-12-14T06:13:58.836Z,-1.90
2022-12-14T06:19:01.823Z,-1.90
2022-12-14T06:24:04.935Z,-1.90
2022-12-14T06:29:07.702Z,-1.80
2022-12-14T06:34:10.994Z,-1.80
2022-12-14T06:39:15.044Z,-1.80
2022-12-14T06:44:16.822Z,-1.80
2022-12-14T06:49:18.591Z,-1.80
2022-12-14T06:54:20.347Z,-1.90
2022-12-14T06:59:23.260Z,-1.90
2022-12-14T07:04:25.098Z,-1.90
2022-12-14T07:09:26.894Z,-1.90
2022-12-14T07:14:28.632Z,-1.90
2022-12-14T07:19:30.394Z,-1.90
2022-12-14T07:24:32.458Z,-2.00
2022-12-14T07:29:34.958Z,-1.90
2022-12-14T07:34:36.927Z,-1.90
2022-12-14T07:39:38.800Z,-1.90
2022-12-14T07:44:40.564Z,-1.90
2022-12-14T07:49:42.336Z,-1.90
2022-12-14T07:54:44.079Z,-1.90
2022-12-14T07:59:45.870Z,-1.90
2022-12-14T08:04:47.688Z,-1.90
2022-12-14T08:09:49.650Z,-1.90
2022-12-14T08:14:51.876Z,-1.90
2022-12-14T08:19:53.621Z,-2.00
2022-12-14T08:24:56.210Z,-2.00
2022-12-14T08:29:58.851Z,-2.00
2022-12-14T08:35:01.063Z,-2.00
2022-12-14T08:40:03.941Z,-2.00
2022-12-14T08:45:06.510Z,-2.00
2022-12-14T08:50:08.837Z,-2.10
2022-12-14T08:55:10.602Z,-2.00
2022-12-14T09:00:12.867Z,-1.90
2022-12-14T09:05:14.693Z,-1.80
2022-12-14T09:10:19.557Z,-1.70
2022-12-14T09:15:21.372Z,-1.60
2022-12-14T09:20:23.652Z,-1.40
2022-12-14T09:25:25.599Z,-1.20
2022-12-14T09:30:27.457Z,-1.30
2022-12-14T09:35:29.363Z,-1.20
2022-12-14T09:40:33.036Z,-1.00
2022-12-14T09:45:48.690Z,-1.00
2022-12-14T09:50:53.117Z,-0.90
2022-12-14T09:55:57.512Z,-1.00
2022-12-14T10:01:22.329Z,-0.90
2022-12-14T10:06:46.786Z,-1.10
2022-12-14T10:12:04.147Z,-1.10
2022-12-14T10:17:20.999Z,-1.20
2022-12-14T10:22:35.819Z,-1.10
2022-12-14T10:28:09.179Z,-1.20
2022-12-14T10:33:23.182Z,-1.20
2022-12-14T10:38:39.375Z,-1.00
2022-12-14T10:43:59.128Z,-0.80
2022-12-14T10:49:25.378Z,-0.70
2022-12-14T10:54:46.278Z,-0.50
2022-12-14T11:00:05.737Z,-0.50
2022-12-14T11:05:58.194Z,-0.30
2022-12-14T11:11:18.702Z,-0.30
2022-12-14T11:16:36.687Z,-0.10
2022-12-14T11:21:39.344Z,0.10
2022-12-14T11:26:42.801Z,0.00
2022-12-14T11:31:46.949Z,0.20
2022-12-14T11:36:50.026Z,0.30
2022-12-14T11:41:58.018Z,0.50
2022-12-14T11:47:00.104Z,0.50
2022-12-14T11:52:20.085Z,0.40
2022-12-14T11:57:28.321Z,0.40
2022-12-14T12:02:37.774Z,0.70
2022-12-14T12:07:44.720Z,1.00
2022-12-14T12:13:00.732Z,0.90
2022-12-14T12:18:17.433Z,1.00
2022-12-14T12:23:30.419Z,1.20
2022-12-14T12:28:36.113Z,0.90
2022-12-14T12:33:52.471Z,1.00
2022-12-14T12:39:05.924Z,1.00
2022-12-14T12:44:29.614Z,1.00
2022-12-14T12:49:32.047Z,1.10
2022-12-14T12:54:41.874Z,1.20
2022-12-14T12:59:48.698Z,1.30
2022-12-14T13:04:52.908Z,1.60
2022-12-14T13:10:14.348Z,1.50
2022-12-14T13:15:32.803Z,1.60
2022-12-14T13:20:35.094Z,1.80
2022-12-14T13:25:48.410Z,2.20
2022-12-14T13:30:59.258Z,2.10
2022-12-14T13:36:17.411Z,2.30
2022-12-14T13:41:50.827Z,2.30
2022-12-14T13:47:02.476Z,2.80
2022-12-14T13:52:04.812Z,2.90
2022-12-14T13:57:13.922Z,3.50
2022-12-14T14:02:27.903Z,5.00
2022-12-14T14:07:29.759Z,5.70
2022-12-14T14:12:43.945Z,5.40
2022-12-14T14:17:48.508Z,5.90
2022-12-14T14:23:18.196Z,6.30
2022-12-14T14:28:23.174Z,6.70
2022-12-14T14:33:49.863Z,5.80
2022-12-14T14:38:52.849Z,2.50
2022-12-14T14:43:58.852Z,1.20
2022-12-14T14:49:00.840Z,0.90
2022-12-14T14:59:56.921Z,0.30
2022-12-14T15:05:17.450Z,0.10
2022-12-14T15:10:42.712Z,0.00
2022-12-14T15:15:51.284Z,-0.10
2022-12-14T15:21:01.218Z,-0.30
2022-12-14T15:26:16.081Z,-0.40
2022-12-14T15:31:28.157Z,-0.50
2022-12-14T15:36:35.383Z,-0.60
2022-12-14T15:41:37.141Z,-0.60
2022-12-14T15:46:40.319Z,-0.70
2022-12-14T15:51:44.177Z,-0.80
2022-12-14T15:56:48.919Z,-0.90
2022-12-14T16:02:04.793Z,-1.10
2022-12-14T16:07:30.252Z,-1.10
2022-12-14T16:12:46.964Z,-1.20
2022-12-14T16:17:53.666Z,-1.30
2022-12-14T16:23:01.353Z,-1.20
2022-12-14T16:28:26.321Z,-1.30
2022-12-14T16:33:29.476Z,-1.50
2022-12-14T16:38:35.496Z,-1.60
2022-12-14T16:43:41.787Z,-1.70
2022-12-14T16:48:46.084Z,-1.70
2022-12-14T16:53:58.519Z,-1.80
2022-12-14T16:59:03.786Z,-1.90
2022-12-14T17:04:06.975Z,-1.90
2022-12-14T17:09:21.891Z,-1.90
2022-12-14T17:14:26.807Z,-2.00
2022-12-14T17:19:37.987Z,-2.00
2022-12-14T17:24:42.800Z,-2.00
2022-12-14T17:29:45.086Z,-2.20
2022-12-14T17:34:47.212Z,-2.20
2022-12-14T17:39:49.592Z,-2.20
2022-12-14T17:44:56.028Z,-2.20
2022-12-14T17:49:57.758Z,-2.30
2022-12-14T17:54:59.982Z,-2.40
2022-12-14T18:00:20.278Z,-2.50
2022-12-14T18:05:22.320Z,-2.60
2022-12-14T18:10:24.283Z,-2.60
2022-12-14T18:15:31.176Z,-2.70
2022-12-14T18:20:33.593Z,-2.80
2022-12-14T18:25:44.401Z,-2.90
2022-12-14T18:31:20.680Z,-3.00
2022-12-14T18:36:23.603Z,-3.00
2022-12-14T18:41:26.693Z,-3.00
2022-12-14T18:46:28.673Z,-3.10
2022-12-14T18:51:30.574Z,-3.10
2022-12-14T18:56:32.892Z,-3.30
2022-12-14T19:01:35.112Z,-3.30
2022-12-14T19:06:45.443Z,-3.20
2022-12-14T19:11:47.675Z,-3.10
2022-12-14T19:16:49.488Z,-3.20
2022-12-14T19:21:51.506Z,-3.10
2022-12-14T19:26:53.261Z,-3.20
2022-12-14T19:31:58.015Z,-3.30
2022-12-14T19:37:02.156Z,-3.30
2022-12-14T19:42:04.067Z,-3.50
2022-12-14T19:47:06.092Z,-3.50
2022-12-14T19:52:08.142Z,-3.50
2022-12-14T19:57:10.849Z,-3.50
2022-12-14T20:02:14.492Z,-3.60
2022-12-14T20:07:16.443Z,-3.50
2022-12-14T20:12:18.334Z,-3.40
2022-12-14T20:17:20.135Z,-3.40
2022-12-14T20:22:22.113Z,-3.40
2022-12-14T20:27:23.905Z,-3.30
2022-12-14T20:32:25.673Z,-3.40
2022-12-14T20:37:27.562Z,-3.60
2022-12-14T20:42:29.457Z,-3.60
2022-12-14T20:47:31.262Z,-3.50
2022-12-14T20:52:33.087Z,-3.60
2022-12-14T20:57:34.904Z,-3.60
2022-12-14T21:02:36.784Z,-3.70
2022-12-14T21:07:38.683Z,-3.80
2022-12-14T21:12:40.458Z,-3.50
2022-12-14T21:17:42.481Z,-3.70
2022-12-14T21:22:44.256Z,-3.70
2022-12-14T21:27:46.036Z,-3.90
2022-12-14T21:32:47.832Z,-3.70
2022-12-14T21:37:51.194Z,-3.70
2022-12-14T21:42:52.978Z,-3.70
2022-12-14T21:47:54.930Z,-3.70
2022-12-14T21:52:56.690Z,-3.60
2022-12-14T21:58:16.737Z,-3.70
2022-12-14T22:03:18.525Z,-3.60
2022-12-14T22:08:20.302Z,-3.90
2022-12-14T22:13:22.026Z,-4.40
2022-12-14T22:18:24.138Z,-4.40
2022-12-14T22:23:25.910Z,-4.50
2022-12-14T22:28:27.636Z,-4.20
2022-12-14T22:33:30.792Z,-4.30
2022-12-14T22:38:32.872Z,-4.60
2022-12-14T22:43:37.282Z,-4.50
2022-12-14T22:48:40.239Z,-4.50
2022-12-14T22:53:42.909Z,-4.60
2022-12-14T22:59:13.299Z,-4.50
2022-12-14T23:04:15.200Z,-4.40
2022-12-14T23:09:35.519Z,-4.40
2022-12-14T23:15:04.103Z,-4.60
2022-12-14T23:20:30.617Z,-4.70
2022-12-14T23:25:53.569Z,-4.50
2022-12-14T23:31:16.372Z,-4.50
2022-12-14T23:36:36.543Z,-4.40
2022-12-14T23:41:56.774Z,-4.40
2022-12-14T23:47:17.212Z,-4.50
2022-12-14T23:52:37.703Z,-4.80
2022-12-14T23:57:58.150Z,-4.70
